createdAt,value
2018-02-11T00:46:45.522Z,0.50
2018-02-11T00:49:29.023Z,0.40
2018-02-11T00:52:11.691Z,0.40
2018-02-11T00:55:08.300Z,0.30
2018-02-11T01:01:53.004Z,0.30
2018-02-11T01:05:09.670Z,0.30
2018-02-11T01:11:06.916Z,0.20
2018-02-11T01:17:05.953Z,0.20
2018-02-11T01:19:36.974Z,0.20
2018-02-11T01:22:25.093Z,0.10
2018-02-11T01:24:53.327Z,0.10
2018-02-11T01:27:22.459Z,0.10
2018-02-11T01:29:50.774Z,0.20
2018-02-11T01:32:29.052Z,0.10
2018-02-11T01:35:13.029Z,0.10
2018-02-11T01:37:51.059Z,0.10
2018-02-11T01:40:55.450Z,0.20
2018-02-11T01:43:42.767Z,0.10
2018-02-11T01:46:16.483Z,0.10
2018-02-11T01:49:11.555Z,0.10
2018-02-11T01:51:50.307Z,0.10
2018-02-11T07:08:24.471Z,0.90
2018-02-11T07:30:31.578Z,1.10
2018-02-11T07:32:59.801Z,1.20
2018-02-11T07:35:27.928Z,1.20
2018-02-11T07:37:57.170Z,1.20
2018-02-11T07:40:25.528Z,1.30
2018-02-11T07:42:53.712Z,1.30
2018-02-11T07:45:22.316Z,1.40
2018-02-11T07:47:51.194Z,1.40
2018-02-11T07:50:19.322Z,1.40
2018-02-11T07:52:50.385Z,1.40
2018-02-11T07:55:18.533Z,1.40
2018-02-11T08:01:38.973Z,1.50
2018-02-11T08:04:08.234Z,1.50
2018-02-11T08:06:36.363Z,1.50
2018-02-11T08:09:04.472Z,1.50
2018-02-11T08:11:33.621Z,1.60
2018-02-11T08:14:03.401Z,1.50
2018-02-11T08:16:31.604Z,1.60
2018-02-11T08:18:59.942Z,1.60
2018-02-11T08:21:33.305Z,1.60
2018-02-11T08:24:01.475Z,1.60
2018-02-11T08:26:30.310Z,1.60
2018-02-11T08:28:58.488Z,1.60
2018-02-11T08:31:26.619Z,1.70
2018-02-11T08:33:59.701Z,1.70
2018-02-11T08:36:27.919Z,1.70
2018-02-11T08:38:56.134Z,1.70
2018-02-11T08:41:26.255Z,1.70
2018-02-11T08:43:57.559Z,1.80
2018-02-11T08:46:25.699Z,1.80
2018-02-11T08:48:54.618Z,1.80
2018-02-11T08:51:22.736Z,1.90
2018-02-11T08:53:50.811Z,1.90
2018-02-11T08:56:18.938Z,1.90
2018-02-11T08:58:47.022Z,2.00
2018-02-11T09:01:15.520Z,2.10
2018-02-11T09:03:43.628Z,2.20
2018-02-11T09:06:11.711Z,2.50
2018-02-11T09:08:39.806Z,2.70
2018-02-11T09:11:07.903Z,2.90
2018-02-11T09:13:36.335Z,3.10
2018-02-11T09:16:04.488Z,3.20
2018-02-11T09:18:32.576Z,3.30
2018-02-11T09:21:00.713Z,3.30
2018-02-11T09:23:29.639Z,3.40
2018-02-11T09:25:57.804Z,3.40
2018-02-11T09:28:25.980Z,3.50
2018-02-11T09:30:54.181Z,3.50
2018-02-11T09:33:22.256Z,3.60
2018-02-11T09:35:50.379Z,3.60
2018-02-11T09:38:18.450Z,3.60
2018-02-11T09:43:32.278Z,3.70
2018-02-11T09:46:03.353Z,3.70
2018-02-11T09:48:32.410Z,3.80
2018-02-11T09:51:00.561Z,3.80
2018-02-11T09:53:28.756Z,3.80
2018-02-11T09:55:57.724Z,3.90
2018-02-11T09:58:31.706Z,3.90
2018-02-11T10:01:00.183Z,3.90
2018-02-11T10:03:29.370Z,3.90
2018-02-11T10:05:57.470Z,3.90
2018-02-11T10:08:25.582Z,4.00
2018-02-11T10:10:53.699Z,4.00
2018-02-11T10:13:21.799Z,4.00
2018-02-11T10:15:49.904Z,4.00
2018-02-11T10:18:18.102Z,4.00
2018-02-11T10:20:46.975Z,4.00
2018-02-11T10:23:15.514Z,4.00
2018-02-11T10:25:44.887Z,4.00
2018-02-11T10:28:14.744Z,4.00
2018-02-11T10:30:43.454Z,4.00
2018-02-11T10:33:12.340Z,4.00
2018-02-11T10:35:40.435Z,4.00
2018-02-11T10:38:08.565Z,4.00
2018-02-11T10:40:38.586Z,4.00
2018-02-11T10:43:06.674Z,4.00
2018-02-11T10:45:35.347Z,4.00
2018-02-11T10:48:18.030Z,4.00
2018-02-11T10:50:53.006Z,4.00
2018-02-11T10:53:22.304Z,4.00
2018-02-11T10:55:50.634Z,3.90
2018-02-11T10:58:19.604Z,3.90
2018-02-11T11:00:51.122Z,3.90
2018-02-11T11:03:20.152Z,3.90
2018-02-11T11:05:48.251Z,3.90
2018-02-11T11:08:16.376Z,4.00
2018-02-11T11:10:44.557Z,4.00
2018-02-11T11:13:12.670Z,4.10
2018-02-11T11:15:41.797Z,4.10
2018-02-11T11:18:10.404Z,4.20
2018-02-11T11:20:38.861Z,4.20
2018-02-11T11:23:07.177Z,4.30
2018-02-11T11:32:20.230Z,4.50
2018-02-11T11:34:48.332Z,4.50
2018-02-11T11:37:17.266Z,4.40
2018-02-11T11:39:45.450Z,4.10
2018-02-11T11:42:13.556Z,3.80
2018-02-11T11:44:42.776Z,3.60
2018-02-11T11:47:11.700Z,3.60
2018-02-11T11:49:40.574Z,3.50
2018-02-11T11:52:09.068Z,3.40
2018-02-11T12:01:21.483Z,3.50
2018-02-11T12:03:50.375Z,3.50
2018-02-11T12:06:19.281Z,3.50
2018-02-11T12:08:48.336Z,3.60
2018-02-11T12:11:16.410Z,3.60
2018-02-11T12:13:44.532Z,3.70
2018-02-11T12:16:13.604Z,3.80
2018-02-11T12:18:41.770Z,3.80
2018-02-11T12:21:09.929Z,3.90
2018-02-11T12:23:38.129Z,4.00
2018-02-11T12:26:07.000Z,4.00
2018-02-11T12:28:35.219Z,4.10
2018-02-11T12:31:04.167Z,4.20
2018-02-11T12:33:32.609Z,4.30
2018-02-11T12:36:00.740Z,4.40
2018-02-11T12:38:29.606Z,4.50
2018-02-11T12:40:57.710Z,4.60
2018-02-11T12:43:26.594Z,4.70
2018-02-11T12:45:56.842Z,4.60
2018-02-11T12:48:25.890Z,4.60
2018-02-11T12:50:54.101Z,4.60
2018-02-11T12:53:23.194Z,4.60
2018-02-11T12:55:51.289Z,4.60
2018-02-11T12:58:20.334Z,4.60
2018-02-11T13:00:48.499Z,4.70
2018-02-11T13:03:16.716Z,4.70
2018-02-11T13:05:44.878Z,4.70
2018-02-11T13:08:13.764Z,4.80
2018-02-11T13:10:42.657Z,4.80
2018-02-11T13:13:11.535Z,4.60
2018-02-11T13:15:39.723Z,4.50
2018-02-11T13:18:08.647Z,4.30
2018-02-11T13:20:36.706Z,4.10
2018-02-11T13:23:08.454Z,4.10
2018-02-11T13:25:36.536Z,4.10
2018-02-11T13:28:04.628Z,4.10
2018-02-11T13:30:32.737Z,4.10
2018-02-11T13:33:04.614Z,4.10
2018-02-11T13:35:33.484Z,4.20
2018-02-11T13:38:01.928Z,4.20
2018-02-11T13:40:31.455Z,4.20
2018-02-11T13:43:00.605Z,4.20
2018-02-11T13:45:28.936Z,4.30
2018-02-11T13:47:57.055Z,4.30
2018-02-11T13:50:25.904Z,4.30
2018-02-11T13:52:54.018Z,4.30
2018-02-11T13:55:22.191Z,4.30
2018-02-11T13:57:51.597Z,4.30
2018-02-11T14:00:19.786Z,4.40
2018-02-11T14:02:49.904Z,4.40
2018-02-11T14:05:18.587Z,4.40
2018-02-11T14:07:46.807Z,4.40
2018-02-11T14:10:16.923Z,4.40
2018-02-11T14:12:47.083Z,4.40
2018-02-11T14:15:15.232Z,4.30
2018-02-11T14:17:43.323Z,4.30
2018-02-11T14:20:12.162Z,4.20
2018-02-11T14:22:41.191Z,4.10
2018-02-11T14:25:10.477Z,4.10
2018-02-11T14:27:40.618Z,4.10
2018-02-11T14:30:08.823Z,4.00
2018-02-11T14:32:37.028Z,4.00
2018-02-11T14:35:05.374Z,4.00
2018-02-11T14:37:33.516Z,4.00
2018-02-11T14:40:01.701Z,4.00
2018-02-11T14:42:30.883Z,4.00
2018-02-11T14:44:59.330Z,4.00
2018-02-11T14:47:27.459Z,3.90
2018-02-11T14:49:55.588Z,4.00
2018-02-11T14:52:23.855Z,4.00
2018-02-11T14:54:51.967Z,4.00
2018-02-11T14:57:22.405Z,4.00
2018-02-11T14:59:51.312Z,4.00
2018-02-11T15:02:19.483Z,4.00
2018-02-11T15:04:47.665Z,4.00
2018-02-11T15:07:15.977Z,4.00
2018-02-11T15:09:44.161Z,4.00
2018-02-11T15:12:12.340Z,3.90
2018-02-11T15:14:43.704Z,4.00
2018-02-11T15:17:11.787Z,4.00
2018-02-11T15:19:40.681Z,4.00
2018-02-11T15:22:11.921Z,4.00
2018-02-11T15:24:40.823Z,4.00
2018-02-11T15:27:08.987Z,4.00
2018-02-11T15:29:37.145Z,4.00
2018-02-11T15:32:05.254Z,4.00
2018-02-11T15:34:34.446Z,4.10
2018-02-11T15:37:02.653Z,4.10
2018-02-11T15:39:30.775Z,4.10
2018-02-11T15:41:58.874Z,4.10
2018-02-11T15:44:27.077Z,4.10
2018-02-11T15:47:00.395Z,4.10
2018-02-11T15:49:29.502Z,4.10
2018-02-11T15:51:57.647Z,4.10
2018-02-11T15:54:26.060Z,4.00
2018-02-11T15:56:55.129Z,4.00
2018-02-11T15:59:23.221Z,4.00
2018-02-11T16:01:51.468Z,4.10
2018-02-11T16:04:19.853Z,4.10
2018-02-11T16:06:48.125Z,4.10
2018-02-11T16:09:21.351Z,4.10
2018-02-11T16:11:51.376Z,4.10
2018-02-11T16:14:20.544Z,4.10
2018-02-11T16:16:50.257Z,4.10
2018-02-11T16:19:19.314Z,4.00
2018-02-11T16:21:47.657Z,4.00
2018-02-11T16:24:16.729Z,4.00
2018-02-11T16:26:44.960Z,3.90
2018-02-11T16:29:16.474Z,3.90
2018-02-11T16:31:46.592Z,3.80
2018-02-11T16:34:15.517Z,3.70
2018-02-11T16:36:43.746Z,3.70
2018-02-11T16:39:11.918Z,3.70
2018-02-11T16:41:40.904Z,3.70
2018-02-11T16:44:09.109Z,3.60
2018-02-11T16:46:38.046Z,3.60
2018-02-11T16:49:06.158Z,3.60
2018-02-11T16:51:34.243Z,3.50
2018-02-11T16:54:02.372Z,3.40
2018-02-11T16:56:30.460Z,3.40
2018-02-11T16:58:58.552Z,3.30
2018-02-11T17:01:26.636Z,3.30
2018-02-11T17:03:55.578Z,3.30
2018-02-11T17:06:23.977Z,3.20
2018-02-11T17:08:52.122Z,3.30
2018-02-11T17:11:20.983Z,3.30
2018-02-11T17:13:49.046Z,3.30
2018-02-11T17:16:17.155Z,3.20
2018-02-11T17:22:15.907Z,3.20
2018-02-11T17:27:50.288Z,3.30
2018-02-11T17:33:21.591Z,3.20
2018-02-11T17:36:17.771Z,3.20
2018-02-11T17:38:46.771Z,3.20
2018-02-11T17:41:16.134Z,3.10
2018-02-11T17:43:44.359Z,3.10
2018-02-11T17:46:12.480Z,3.10
2018-02-11T17:48:56.907Z,3.00
2018-02-11T17:51:26.451Z,3.00
2018-02-11T17:53:54.565Z,3.00
2018-02-11T17:56:26.312Z,3.00
2018-02-11T17:58:55.277Z,3.00
2018-02-11T18:01:24.540Z,2.90
2018-02-11T18:03:52.676Z,2.90
2018-02-11T18:06:22.788Z,2.90
2018-02-11T18:08:51.676Z,3.00
2018-02-11T18:11:20.619Z,2.90
2018-02-11T18:13:50.694Z,2.90
2018-02-11T18:16:19.570Z,2.90
2018-02-11T18:18:47.767Z,2.80
2018-02-11T18:21:16.641Z,2.70
2018-02-11T18:23:45.524Z,2.70
2018-02-11T18:26:13.636Z,2.70
2018-02-11T18:28:41.770Z,2.70
2018-02-11T18:31:09.869Z,2.70
2018-02-11T18:33:37.975Z,2.70
2018-02-11T18:36:06.082Z,2.60
2018-02-11T18:38:34.202Z,2.60
2018-02-11T18:41:05.860Z,2.60
2018-02-11T18:43:35.816Z,2.60
2018-02-11T18:46:07.418Z,2.60
2018-02-11T18:48:41.944Z,2.40
2018-02-11T18:54:26.672Z,2.40
2018-02-11T18:57:03.822Z,2.40
2018-02-11T18:59:42.081Z,2.40
2018-02-11T19:02:11.240Z,2.30
2018-02-11T19:04:41.355Z,2.30
2018-02-11T19:07:09.653Z,2.20
2018-02-11T19:09:37.987Z,2.20
2018-02-11T19:12:06.165Z,2.20
2018-02-11T19:14:34.616Z,2.20
2018-02-11T19:17:05.839Z,2.30
2018-02-11T19:19:35.572Z,2.20
2018-02-11T19:22:04.616Z,2.20
2018-02-11T19:24:32.758Z,2.20
2018-02-11T19:27:01.776Z,2.20
2018-02-11T19:29:32.037Z,2.10
2018-02-11T19:34:59.315Z,2.00
2018-02-11T19:37:32.642Z,2.00
2018-02-11T19:40:05.792Z,2.00
2018-02-11T19:42:37.718Z,2.00
2018-02-11T19:45:10.206Z,2.00
2018-02-11T19:47:38.368Z,1.90
2018-02-11T19:50:06.471Z,1.90
2018-02-11T19:52:40.001Z,1.90
2018-02-11T20:00:49.064Z,2.00
2018-02-11T20:10:39.513Z,1.70
2018-02-11T20:13:12.338Z,1.80
2018-02-11T20:15:44.517Z,1.70
2018-02-11T20:18:17.413Z,1.70
2018-02-11T20:20:48.068Z,1.70
2018-02-11T20:23:21.489Z,1.80
2018-02-11T20:25:53.928Z,1.80
2018-02-11T20:28:39.628Z,1.80
2018-02-11T20:31:31.980Z,1.80
2018-02-11T20:34:06.429Z,1.80
2018-02-11T20:36:38.552Z,1.80
2018-02-11T20:39:11.708Z,1.70
2018-02-11T20:41:49.913Z,1.70
2018-02-11T20:44:18.024Z,1.70
2018-02-11T20:46:46.144Z,1.70
2018-02-11T20:49:14.249Z,1.70
2018-02-11T20:51:58.889Z,1.70
2018-02-11T20:54:32.675Z,1.60
2018-02-11T20:57:08.867Z,1.60
2018-02-11T20:59:42.136Z,1.60
2018-02-11T21:02:27.527Z,1.60
2018-02-11T21:10:29.962Z,1.80
2018-02-11T21:13:00.786Z,1.80
2018-02-11T21:15:30.582Z,1.70
2018-02-11T21:18:00.370Z,1.70
2018-02-11T21:23:06.086Z,1.70
2018-02-11T21:25:37.929Z,1.60
2018-02-11T21:28:09.414Z,1.60
2018-02-11T21:30:44.496Z,1.60
2018-02-11T21:33:27.351Z,1.60
2018-02-11T21:36:00.400Z,1.60
2018-02-11T21:38:28.640Z,1.60
2018-02-11T21:40:57.914Z,1.60
2018-02-11T21:43:30.203Z,1.60
2018-02-11T21:46:01.413Z,1.60
2018-02-11T21:48:46.182Z,1.60
2018-02-11T21:51:17.249Z,1.60
2018-02-11T21:53:48.805Z,1.60
2018-02-11T21:56:17.988Z,1.60
2018-02-11T21:58:47.150Z,1.50
2018-02-11T22:01:17.455Z,1.50
2018-02-11T22:03:49.817Z,1.50
2018-02-11T22:06:19.608Z,1.50
2018-02-11T22:08:47.768Z,1.50
2018-02-11T22:11:23.020Z,1.50
2018-02-11T22:13:53.832Z,1.50
2018-02-11T22:16:26.736Z,1.60
2018-02-11T22:18:56.585Z,1.60
2018-02-11T22:21:25.648Z,1.60
2018-02-11T22:23:54.583Z,1.60
2018-02-11T22:26:23.463Z,1.50
2018-02-11T22:28:52.431Z,1.50
2018-02-11T22:31:25.273Z,1.50
2018-02-11T22:40:40.605Z,1.50
2018-02-11T22:43:10.273Z,1.50
2018-02-11T22:45:54.545Z,1.50
2018-02-11T22:48:32.431Z,1.50
2018-02-11T22:51:00.672Z,1.50
2018-02-11T22:53:42.747Z,1.50
2018-02-11T22:59:11.909Z,1.50
2018-02-11T23:01:56.140Z,1.50
2018-02-11T23:04:30.213Z,1.40
2018-02-11T23:13:04.237Z,1.50
2018-02-11T23:50:46.398Z,1.50
2018-02-11T23:56:41.080Z,1.40
